Shaftsbury, Vermont
Current Conditions -  °F | °C
As of 5:54 PM on Wednesday 26 Nov 2014 (Local Time) from KDDH Reporting Station
Light Snow Light Snow  
Wind Chill: 26°   Ceiling: 500
Heat Index: 32°   Visibility: 1mi
Dew Point: 30°   Wind: 7mph
Humidity: 92%   Direction: 360°N
Pressure: 29.92"   Gusts: NA
Location:  43.01°N, 73.19°W
Report Text: KDDH 262254Z AUTO 36006KT 1SM -SN BR VV005 00/M01 A2992 RMK AO2 SLP139 P0007 T00001011
Loading
Personal Weather Stations






























Interactive Weather Map New forecast layout! Learn more

10-Day Weather Forecast

Advertisements
Track Severe Weather on mobile